createdAt,value
2019-03-03T00:00:21.921Z,9.60
2019-03-03T00:02:50.583Z,9.60
2019-03-03T00:05:19.064Z,9.70
2019-03-03T00:07:47.560Z,9.60
2019-03-03T00:10:16.068Z,9.70
2019-03-03T00:12:44.551Z,9.80
2019-03-03T00:15:13.205Z,9.80
2019-03-03T00:17:41.968Z,9.80
2019-03-03T00:20:12.291Z,9.90
2019-03-03T00:22:40.764Z,9.80
2019-03-03T00:25:10.727Z,9.80
2019-03-03T00:27:39.290Z,9.70
2019-03-03T00:30:14.035Z,9.60
2019-03-03T00:32:42.888Z,9.50
2019-03-03T00:35:11.379Z,9.40
2019-03-03T00:37:57.506Z,9.40
2019-03-03T00:40:30.302Z,9.40
2019-03-03T00:43:00.431Z,9.40
2019-03-03T00:45:48.575Z,9.40
2019-03-03T00:48:21.337Z,9.40
2019-03-03T00:50:51.517Z,9.50
2019-03-03T00:53:39.415Z,9.50
2019-03-03T00:56:25.406Z,9.60
2019-03-03T00:59:10.315Z,9.40
2019-03-03T01:01:52.321Z,9.20
2019-03-03T01:04:28.121Z,9.10
2019-03-03T01:06:58.295Z,9.20
2019-03-03T01:09:45.137Z,9.30
2019-03-03T01:12:15.289Z,9.30
2019-03-03T01:14:45.394Z,9.30
2019-03-03T01:17:18.406Z,9.30
2019-03-03T01:19:57.229Z,9.40
2019-03-03T01:22:27.393Z,9.40
2019-03-03T01:24:58.587Z,9.20
2019-03-03T01:27:27.140Z,9.20
2019-03-03T01:29:55.615Z,9.10
2019-03-03T01:32:24.151Z,9.10
2019-03-03T01:34:52.610Z,9.10
2019-03-03T01:37:21.090Z,9.10
2019-03-03T01:39:49.615Z,9.00
2019-03-03T01:42:18.122Z,8.90
2019-03-03T01:44:46.670Z,8.80
2019-03-03T01:47:15.122Z,8.80
2019-03-03T01:49:43.605Z,8.80
2019-03-03T01:52:12.111Z,8.80
2019-03-03T01:54:40.658Z,8.70
2019-03-03T01:57:09.162Z,8.70
2019-03-03T01:59:37.627Z,8.70
2019-03-03T02:02:06.128Z,8.70
2019-03-03T02:04:34.605Z,8.60
2019-03-03T02:07:03.120Z,8.60
2019-03-03T02:09:32.164Z,8.50
2019-03-03T02:12:00.636Z,8.30
2019-03-03T02:14:29.135Z,8.10
2019-03-03T02:16:57.626Z,8.00
2019-03-03T02:19:26.122Z,7.90
2019-03-03T02:21:54.610Z,7.90
2019-03-03T02:24:23.128Z,7.90
2019-03-03T02:26:51.609Z,8.00
2019-03-03T02:29:20.093Z,8.00
2019-03-03T02:31:48.588Z,8.00
2019-03-03T02:34:17.086Z,7.90
2019-03-03T02:36:45.632Z,7.90
2019-03-03T02:39:15.680Z,8.00
2019-03-03T02:41:44.154Z,7.90
2019-03-03T02:44:12.925Z,8.00
2019-03-03T02:46:41.470Z,8.20
2019-03-03T02:49:09.961Z,8.30
2019-03-03T02:51:38.568Z,8.30
2019-03-03T02:54:07.079Z,8.40
2019-03-03T02:56:35.630Z,8.40
2019-03-03T02:59:04.362Z,8.40
2019-03-03T03:01:37.232Z,8.50
2019-03-03T03:04:05.820Z,8.40
2019-03-03T03:06:35.968Z,8.30
2019-03-03T03:09:12.882Z,8.20
2019-03-03T03:11:53.515Z,8.10
2019-03-03T03:14:32.646Z,8.20
2019-03-03T03:17:02.970Z,8.20
2019-03-03T03:19:38.769Z,8.20
2019-03-03T03:22:11.698Z,8.20
2019-03-03T03:24:50.750Z,8.30
2019-03-03T03:27:23.759Z,8.20
2019-03-03T03:29:56.810Z,8.10
2019-03-03T03:32:26.925Z,8.10
2019-03-03T03:35:14.917Z,8.10
2019-03-03T03:37:45.089Z,8.20
2019-03-03T03:40:18.167Z,8.20
2019-03-03T03:43:00.115Z,8.20
2019-03-03T03:45:46.406Z,8.20
2019-03-03T03:48:19.254Z,8.20
2019-03-03T03:50:55.284Z,8.20
2019-03-03T03:53:25.483Z,8.20
2019-03-03T03:56:07.428Z,8.20
2019-03-03T03:58:40.502Z,8.20
2019-03-03T04:01:16.172Z,8.20
2019-03-03T04:03:46.306Z,8.20
2019-03-03T04:06:19.087Z,8.20
2019-03-03T04:08:55.208Z,8.10
2019-03-03T04:11:25.312Z,8.10
2019-03-03T04:14:11.543Z,8.00
2019-03-03T04:16:53.486Z,8.00
2019-03-03T04:19:23.636Z,7.90
2019-03-03T04:22:09.721Z,7.90
2019-03-03T04:24:48.569Z,7.90
2019-03-03T04:27:21.341Z,7.90
2019-03-03T04:29:54.264Z,7.80
2019-03-03T04:32:33.221Z,7.80
2019-03-03T04:35:03.353Z,7.70
2019-03-03T04:37:39.307Z,7.80
2019-03-03T04:40:15.456Z,7.70
2019-03-03T04:42:48.228Z,7.70
2019-03-03T04:45:27.315Z,7.70
2019-03-03T04:47:57.435Z,7.70
2019-03-03T04:50:27.568Z,7.70
2019-03-03T04:53:13.989Z,7.70
2019-03-03T04:55:49.780Z,7.70
2019-03-03T04:58:22.536Z,7.50
2019-03-03T05:00:52.797Z,7.30
2019-03-03T05:03:38.960Z,7.30
2019-03-03T05:06:20.775Z,7.30
2019-03-03T05:09:02.723Z,7.30
2019-03-03T05:12:13.530Z,7.30
2019-03-03T05:14:43.750Z,7.20
2019-03-03T05:17:29.870Z,7.40
2019-03-03T05:20:00.060Z,7.40
2019-03-03T05:22:28.578Z,7.30
2019-03-03T05:24:57.079Z,7.20
2019-03-03T05:27:25.747Z,7.20
2019-03-03T05:29:54.297Z,7.10
2019-03-03T05:32:22.879Z,7.20
2019-03-03T05:34:53.201Z,7.10
2019-03-03T05:37:23.822Z,7.10
2019-03-03T05:39:52.426Z,7.00
2019-03-03T05:42:20.974Z,7.00
2019-03-03T05:44:49.516Z,7.00
2019-03-03T05:47:17.995Z,7.20
2019-03-03T05:49:46.544Z,7.30
2019-03-03T05:52:15.016Z,7.40
2019-03-03T05:54:43.611Z,7.40
2019-03-03T05:57:12.164Z,7.30
2019-03-03T05:59:40.638Z,7.20
2019-03-03T06:02:10.683Z,7.10
2019-03-03T06:04:39.191Z,7.00
2019-03-03T06:07:07.693Z,7.00
2019-03-03T06:09:36.277Z,7.20
2019-03-03T06:12:04.854Z,7.20
2019-03-03T06:14:33.341Z,7.20
2019-03-03T06:17:01.849Z,7.10
2019-03-03T06:19:30.376Z,7.20
2019-03-03T06:21:58.875Z,7.30
2019-03-03T06:24:27.372Z,7.30
2019-03-03T06:26:55.856Z,7.30
2019-03-03T06:29:24.373Z,7.40
2019-03-03T06:31:52.857Z,7.60
2019-03-03T06:34:21.354Z,7.70
2019-03-03T06:36:49.853Z,7.70
2019-03-03T06:39:18.501Z,7.80
2019-03-03T06:41:47.045Z,7.80
2019-03-03T06:44:15.619Z,7.70
2019-03-03T06:46:44.091Z,7.70
2019-03-03T06:49:12.596Z,7.70
2019-03-03T06:51:41.179Z,7.80
2019-03-03T06:54:09.738Z,7.80
2019-03-03T06:56:38.206Z,7.90
2019-03-03T06:59:06.701Z,8.10
2019-03-03T07:01:35.215Z,8.10
2019-03-03T07:04:03.703Z,8.10
2019-03-03T07:06:32.213Z,8.20
2019-03-03T07:09:02.478Z,8.30
2019-03-03T07:11:32.596Z,8.40
2019-03-03T07:14:01.252Z,8.50
2019-03-03T07:16:31.987Z,8.60
2019-03-03T07:19:00.544Z,8.80
2019-03-03T07:21:29.026Z,8.90
2019-03-03T07:23:57.513Z,8.90
2019-03-03T07:26:26.019Z,9.00
2019-03-03T07:28:56.601Z,9.00
2019-03-03T07:31:24.753Z,9.00
2019-03-03T07:33:54.115Z,9.10
2019-03-03T07:36:22.602Z,9.30
2019-03-03T07:38:55.933Z,9.40
2019-03-03T07:41:24.505Z,9.60
2019-03-03T07:43:52.979Z,9.60
2019-03-03T07:46:21.477Z,9.70
2019-03-03T07:48:53.889Z,9.80
2019-03-03T07:51:22.502Z,10.00
2019-03-03T07:53:50.982Z,10.20
2019-03-03T07:56:22.676Z,10.40
2019-03-03T07:58:51.632Z,10.50
2019-03-03T08:01:20.179Z,10.70
2019-03-03T08:03:48.710Z,10.70
2019-03-03T08:06:17.200Z,10.80
2019-03-03T08:08:45.694Z,11.00
2019-03-03T08:11:14.248Z,11.10
2019-03-03T08:13:43.011Z,11.30
2019-03-03T08:16:11.527Z,11.30
2019-03-03T08:18:40.300Z,11.40
2019-03-03T08:21:08.887Z,11.50
2019-03-03T08:23:37.478Z,11.60
2019-03-03T08:26:06.202Z,11.50
2019-03-03T08:28:34.691Z,11.60
2019-03-03T08:31:03.240Z,11.70
2019-03-03T08:33:31.787Z,11.90
2019-03-03T08:36:00.265Z,12.10
2019-03-03T08:38:28.779Z,12.40
2019-03-03T08:40:57.264Z,12.50
2019-03-03T08:43:30.208Z,12.60
2019-03-03T08:46:15.204Z,12.70
2019-03-03T08:48:54.659Z,12.70
2019-03-03T08:51:24.783Z,12.90
2019-03-03T08:53:57.945Z,13.00
2019-03-03T08:56:30.779Z,13.20
2019-03-03T08:59:00.958Z,13.30
2019-03-03T09:01:39.701Z,13.40
2019-03-03T09:04:21.706Z,13.50
2019-03-03T09:06:52.099Z,14.00
2019-03-03T09:09:31.104Z,14.60
2019-03-03T09:12:10.265Z,15.30
2019-03-03T09:14:46.599Z,15.70
2019-03-03T09:17:19.720Z,16.10
2019-03-03T09:20:06.808Z,16.30
2019-03-03T09:22:52.507Z,16.30
2019-03-03T09:25:22.776Z,16.20
2019-03-03T09:27:59.152Z,16.20
2019-03-03T09:30:48.582Z,16.30
2019-03-03T09:33:28.019Z,16.80
2019-03-03T09:36:07.492Z,17.00
2019-03-03T09:38:43.516Z,17.00
2019-03-03T09:41:29.970Z,17.20
2019-03-03T09:44:05.760Z,17.60
2019-03-03T09:46:38.642Z,18.00
2019-03-03T09:49:17.676Z,18.40
2019-03-03T09:52:19.188Z,18.30
2019-03-03T09:54:53.109Z,18.70
2019-03-03T09:57:28.957Z,19.20
2019-03-03T10:00:05.058Z,19.10
2019-03-03T10:02:41.742Z,19.40
2019-03-03T10:05:28.518Z,19.40
2019-03-03T10:08:10.863Z,19.20
2019-03-03T10:10:44.243Z,18.90
2019-03-03T10:13:23.370Z,19.30
2019-03-03T10:15:59.182Z,19.10
2019-03-03T10:18:35.616Z,19.20
2019-03-03T10:21:11.878Z,19.50
2019-03-03T10:23:58.048Z,19.70
2019-03-03T10:26:37.201Z,19.80
2019-03-03T10:29:10.699Z,19.80
2019-03-03T10:31:57.513Z,19.50
2019-03-03T10:34:33.669Z,19.80
2019-03-03T10:37:19.850Z,19.70
2019-03-03T10:39:52.754Z,19.60
2019-03-03T10:42:23.081Z,19.70
2019-03-03T10:45:05.060Z,20.00
2019-03-03T10:47:35.404Z,20.10
2019-03-03T10:50:06.027Z,20.60
2019-03-03T10:52:42.216Z,20.90
2019-03-03T10:55:14.085Z,21.10
2019-03-03T10:57:54.495Z,21.60
2019-03-03T11:00:25.101Z,21.80
2019-03-03T11:02:58.038Z,21.70
2019-03-03T11:05:35.666Z,21.50
2019-03-03T11:08:05.915Z,21.60
2019-03-03T11:10:36.269Z,21.80
2019-03-03T11:13:33.721Z,22.50
2019-03-03T11:16:20.328Z,22.70
2019-03-03T11:18:56.300Z,22.80
2019-03-03T11:21:42.732Z,22.80
2019-03-03T11:24:12.956Z,22.40
2019-03-03T11:26:51.953Z,22.10
2019-03-03T11:29:22.307Z,21.50
2019-03-03T11:31:55.257Z,21.20
2019-03-03T11:34:32.584Z,22.00
2019-03-03T11:37:20.490Z,22.60
2019-03-03T11:39:59.716Z,22.70
2019-03-03T11:42:30.041Z,22.90
2019-03-03T11:45:03.027Z,22.60
2019-03-03T11:47:33.155Z,22.30
2019-03-03T11:50:05.944Z,21.80
2019-03-03T11:52:38.804Z,22.20
2019-03-03T11:55:11.119Z,22.70
2019-03-03T11:57:46.823Z,22.30
2019-03-03T12:00:17.131Z,22.20
2019-03-03T12:03:02.203Z,21.80
2019-03-03T12:05:48.368Z,22.20
2019-03-03T12:08:18.470Z,22.60
2019-03-03T12:10:51.428Z,21.90
2019-03-03T12:13:21.763Z,22.20
2019-03-03T12:16:03.868Z,22.20
2019-03-03T12:18:36.691Z,22.10
2019-03-03T12:21:07.010Z,22.00
2019-03-03T12:23:37.111Z,22.10
2019-03-03T12:26:16.112Z,22.40
2019-03-03T12:29:02.407Z,22.40
2019-03-03T12:31:44.452Z,22.20
2019-03-03T12:34:14.575Z,22.20
2019-03-03T12:36:50.603Z,22.40
2019-03-03T12:39:23.501Z,22.20
2019-03-03T12:41:53.647Z,22.40
2019-03-03T12:44:35.418Z,21.90
2019-03-03T12:47:05.584Z,21.60
2019-03-03T12:49:44.535Z,21.70
2019-03-03T12:52:17.438Z,21.60
2019-03-03T12:54:47.555Z,21.50
2019-03-03T12:57:23.707Z,21.50
2019-03-03T12:59:56.604Z,21.50
2019-03-03T13:02:26.745Z,21.70
2019-03-03T13:05:02.629Z,21.50
2019-03-03T13:07:38.489Z,21.70
2019-03-03T13:10:22.524Z,22.00
2019-03-03T13:13:08.816Z,22.30
2019-03-03T13:15:56.818Z,22.60
2019-03-03T13:18:42.948Z,22.60
2019-03-03T13:21:18.930Z,22.70
2019-03-03T13:23:49.093Z,22.60
2019-03-03T13:26:31.067Z,22.80
2019-03-03T13:29:06.977Z,23.00
2019-03-03T13:31:37.096Z,23.30
2019-03-03T13:34:13.105Z,23.30
2019-03-03T13:36:45.949Z,23.00
2019-03-03T13:39:21.817Z,23.40
2019-03-03T13:41:54.662Z,23.90
2019-03-03T13:44:23.229Z,24.20
2019-03-03T13:46:51.828Z,24.20
2019-03-03T13:49:20.316Z,23.70
2019-03-03T13:51:48.818Z,23.50
2019-03-03T13:54:17.465Z,23.20
2019-03-03T13:56:45.958Z,22.80
2019-03-03T13:59:17.291Z,23.60
2019-03-03T14:01:45.780Z,23.80
2019-03-03T14:04:14.290Z,24.00
2019-03-03T14:06:42.803Z,23.90
2019-03-03T14:09:11.307Z,24.00
2019-03-03T14:11:39.770Z,24.10
2019-03-03T14:14:08.273Z,24.10
2019-03-03T14:16:36.789Z,24.20
2019-03-03T14:19:05.322Z,24.30
2019-03-03T14:21:36.775Z,24.00
2019-03-03T14:24:05.483Z,24.20
2019-03-03T14:26:33.988Z,24.80
2019-03-03T14:29:02.498Z,24.30
2019-03-03T14:31:34.152Z,23.90
2019-03-03T14:34:02.650Z,23.60
2019-03-03T14:36:31.147Z,24.10
2019-03-03T14:38:59.623Z,24.30
2019-03-03T14:41:28.134Z,24.50
2019-03-03T14:43:56.615Z,24.30
2019-03-03T14:46:25.110Z,23.80
2019-03-03T14:48:53.607Z,23.60
2019-03-03T14:51:22.145Z,24.30
2019-03-03T14:53:50.685Z,24.10
2019-03-03T14:56:19.169Z,24.60
2019-03-03T14:58:47.666Z,24.50
2019-03-03T15:01:16.230Z,25.20
2019-03-03T15:03:46.421Z,25.20
2019-03-03T15:06:23.957Z,25.20
2019-03-03T15:08:45.055Z,25.30
2019-03-03T15:11:13.541Z,25.00
2019-03-03T15:13:42.054Z,25.10
2019-03-03T15:16:10.543Z,25.00
2019-03-03T15:18:39.040Z,25.40
2019-03-03T15:21:07.535Z,26.10
2019-03-03T15:23:36.076Z,26.10
2019-03-03T15:26:04.552Z,26.20
2019-03-03T15:28:33.095Z,26.00
2019-03-03T15:31:01.636Z,25.20
2019-03-03T15:33:30.113Z,24.00
2019-03-03T15:35:58.623Z,22.90
2019-03-03T15:38:27.113Z,22.20
2019-03-03T15:40:55.976Z,22.00
2019-03-03T15:43:24.536Z,21.80
2019-03-03T15:45:53.075Z,21.60
2019-03-03T15:48:21.562Z,21.40
2019-03-03T15:50:50.053Z,21.30
2019-03-03T15:53:18.551Z,21.20
2019-03-03T15:55:48.958Z,20.90
2019-03-03T15:58:17.169Z,20.60
2019-03-03T16:00:45.631Z,20.30
2019-03-03T16:03:14.149Z,20.10
2019-03-03T16:05:42.645Z,19.70
2019-03-03T16:08:11.305Z,19.40
2019-03-03T16:10:39.807Z,19.10
2019-03-03T16:13:08.298Z,19.10
2019-03-03T16:15:36.783Z,19.10
2019-03-03T16:18:05.482Z,19.00
2019-03-03T16:20:33.985Z,18.90
2019-03-03T16:23:05.453Z,18.80
2019-03-03T16:25:33.946Z,18.80
2019-03-03T16:28:04.053Z,18.80
2019-03-03T16:30:32.567Z,18.70
2019-03-03T16:33:01.057Z,18.70
2019-03-03T16:35:29.648Z,18.70
2019-03-03T16:37:58.116Z,18.50
2019-03-03T16:40:26.817Z,18.40
2019-03-03T16:42:55.293Z,18.30
2019-03-03T16:45:24.058Z,18.20
2019-03-03T16:47:52.549Z,18.10
2019-03-03T16:50:22.003Z,18.00
2019-03-03T16:52:50.492Z,17.90
2019-03-03T16:55:19.918Z,17.80
2019-03-03T16:57:48.515Z,17.70
2019-03-03T17:00:22.219Z,17.50
2019-03-03T17:02:51.760Z,17.40
2019-03-03T17:05:27.502Z,17.20
2019-03-03T17:07:56.019Z,17.20
2019-03-03T17:10:24.539Z,17.10
2019-03-03T17:12:53.059Z,17.00
2019-03-03T17:15:23.943Z,16.80
2019-03-03T17:17:52.421Z,16.50
2019-03-03T17:20:20.926Z,16.30
2019-03-03T17:22:49.440Z,16.30
2019-03-03T17:25:22.434Z,16.20
2019-03-03T17:27:50.926Z,16.10
2019-03-03T17:30:21.169Z,16.10
2019-03-03T17:32:49.660Z,16.00
2019-03-03T17:35:18.184Z,15.90
2019-03-03T17:37:46.674Z,15.80
2019-03-03T17:40:20.581Z,15.70
2019-03-03T17:42:48.400Z,15.50
2019-03-03T17:45:19.572Z,15.40
2019-03-03T17:47:48.067Z,15.40
2019-03-03T17:50:18.234Z,15.30
2019-03-03T17:52:46.710Z,15.20
2019-03-03T17:55:16.525Z,15.20
2019-03-03T17:57:45.192Z,15.20
2019-03-03T18:00:19.457Z,15.10
2019-03-03T18:02:47.935Z,15.20
2019-03-03T18:05:17.696Z,15.20
2019-03-03T18:07:46.247Z,15.30
2019-03-03T18:10:14.786Z,15.20
2019-03-03T18:12:43.324Z,15.20
2019-03-03T18:15:14.003Z,15.00
2019-03-03T18:17:42.583Z,14.90
2019-03-03T18:20:13.323Z,14.80
2019-03-03T18:22:43.371Z,14.80
2019-03-03T18:25:14.271Z,14.80
2019-03-03T18:27:42.969Z,14.70
2019-03-03T18:30:14.578Z,14.60
2019-03-03T18:32:43.081Z,14.50
2019-03-03T18:35:13.076Z,14.50
2019-03-03T18:37:46.896Z,14.40
2019-03-03T18:40:17.410Z,14.40
2019-03-03T18:42:46.570Z,14.40
2019-03-03T18:45:22.490Z,14.20
2019-03-03T18:47:51.049Z,14.30
2019-03-03T18:50:21.951Z,14.30
2019-03-03T18:52:50.451Z,14.30
2019-03-03T18:55:18.999Z,14.30
2019-03-03T18:57:47.456Z,14.20
2019-03-03T19:00:32.037Z,14.10
2019-03-03T19:03:00.700Z,14.00
2019-03-03T19:05:29.271Z,13.90
2019-03-03T19:07:57.799Z,13.80
2019-03-03T19:10:28.689Z,13.70
2019-03-03T19:12:57.207Z,13.80
2019-03-03T19:15:25.690Z,13.70
2019-03-03T19:17:54.197Z,13.70
2019-03-03T19:20:22.851Z,13.80
2019-03-03T19:22:51.494Z,13.70
2019-03-03T19:25:20.039Z,13.60
2019-03-03T19:27:49.066Z,13.40
2019-03-03T19:30:20.107Z,13.40
2019-03-03T19:33:00.409Z,13.50
2019-03-03T19:35:31.032Z,13.50
2019-03-03T19:37:59.510Z,13.50
2019-03-03T19:40:28.031Z,13.50
2019-03-03T19:42:56.532Z,13.50
2019-03-03T19:45:33.078Z,13.50
2019-03-03T19:48:01.609Z,13.50
2019-03-03T19:50:30.299Z,13.50
2019-03-03T19:52:58.891Z,13.60
2019-03-03T19:55:27.504Z,13.70
2019-03-03T19:57:55.993Z,13.70
2019-03-03T20:00:35.025Z,13.50
2019-03-03T20:02:58.222Z,13.40
2019-03-03T20:05:26.691Z,13.30
2019-03-03T20:07:55.288Z,13.30
2019-03-03T20:10:25.540Z,13.30
2019-03-03T20:12:54.126Z,13.20
2019-03-03T20:15:23.028Z,13.20
2019-03-03T20:17:51.645Z,13.10
2019-03-03T20:20:21.244Z,13.30
2019-03-03T20:22:50.193Z,13.40
2019-03-03T20:25:18.779Z,13.40
2019-03-03T20:27:47.403Z,13.30
2019-03-03T20:30:25.702Z,13.30
2019-03-03T20:32:54.293Z,13.40
2019-03-03T20:35:22.962Z,13.40
2019-03-03T20:37:51.816Z,13.20
2019-03-03T20:40:25.573Z,13.10
2019-03-03T20:42:55.949Z,13.00
2019-03-03T20:45:29.468Z,13.00
2019-03-03T20:47:58.054Z,13.00
2019-03-03T20:50:26.844Z,12.80
2019-03-03T20:52:55.402Z,12.60
2019-03-03T20:55:28.633Z,12.60
2019-03-03T20:57:59.755Z,12.60
2019-03-03T21:00:30.530Z,12.50
2019-03-03T21:02:59.272Z,12.40
2019-03-03T21:05:27.818Z,12.40
2019-03-03T21:07:56.479Z,12.30
2019-03-03T21:10:31.110Z,12.20
2019-03-03T21:12:59.792Z,12.20
2019-03-03T21:15:28.319Z,12.30
2019-03-03T21:17:56.834Z,12.30
2019-03-03T21:20:25.322Z,12.30
2019-03-03T21:22:53.830Z,12.30
2019-03-03T21:25:22.429Z,12.30
2019-03-03T21:27:50.995Z,12.30
2019-03-03T21:30:23.849Z,12.30
2019-03-03T21:32:52.376Z,12.20
2019-03-03T21:35:20.909Z,12.10
2019-03-03T21:37:49.384Z,12.00
2019-03-03T21:40:24.605Z,11.90
2019-03-03T21:42:53.094Z,11.90
2019-03-03T21:45:29.587Z,11.70
2019-03-03T21:47:58.068Z,11.70
2019-03-03T21:50:30.026Z,11.60
2019-03-03T21:52:58.521Z,11.50
2019-03-03T21:55:27.002Z,11.50
2019-03-03T21:57:55.596Z,11.50
2019-03-03T22:00:40.722Z,11.60
2019-03-03T22:03:09.296Z,11.50
2019-03-03T22:05:37.791Z,11.60
2019-03-03T22:08:06.333Z,11.70
2019-03-03T22:10:34.889Z,11.60
2019-03-03T22:13:08.774Z,11.60
2019-03-03T22:15:37.286Z,11.50
2019-03-03T22:18:05.841Z,11.40
2019-03-03T22:20:34.369Z,11.40
2019-03-03T22:23:02.848Z,11.40
2019-03-03T22:25:31.369Z,11.50
2019-03-03T22:27:59.871Z,11.40
2019-03-03T22:30:28.426Z,11.50
2019-03-03T22:32:56.918Z,11.60
2019-03-03T22:35:25.458Z,11.50
2019-03-03T22:37:54.095Z,11.50
2019-03-03T22:40:23.712Z,11.60
2019-03-03T22:42:52.253Z,11.70
2019-03-03T22:45:20.731Z,11.80
2019-03-03T22:47:49.235Z,11.80
2019-03-03T22:50:18.774Z,11.70
2019-03-03T22:52:47.413Z,11.80
2019-03-03T22:55:18.229Z,11.70
2019-03-03T22:57:46.724Z,11.60
2019-03-03T23:00:43.511Z,11.50
2019-03-03T23:03:14.395Z,11.50
2019-03-03T23:06:00.741Z,11.50
2019-03-03T23:08:32.645Z,11.50
2019-03-03T23:11:07.323Z,11.50
2019-03-03T23:13:39.254Z,11.30
2019-03-03T23:16:28.879Z,11.40
2019-03-03T23:19:00.694Z,11.40
2019-03-03T23:21:41.546Z,11.40
2019-03-03T23:24:41.808Z,11.40
2019-03-03T23:27:10.329Z,11.30
2019-03-03T23:29:38.876Z,11.40
2019-03-03T23:32:07.433Z,11.30
2019-03-03T23:34:35.973Z,11.20
2019-03-03T23:37:04.531Z,11.00
2019-03-03T23:39:33.097Z,11.00
2019-03-03T23:42:01.574Z,11.10
2019-03-03T23:44:30.057Z,11.00
2019-03-03T23:46:58.539Z,11.00
2019-03-03T23:49:27.386Z,11.00
2019-03-03T23:51:55.945Z,11.10
2019-03-03T23:54:24.434Z,11.10
2019-03-03T23:56:52.911Z,10.90
2019-03-03T23:59:21.431Z,10.90
